sensor_id;sensor_type;location;lat;lon;timestamp;pressure;altitude;pressure_sealevel;temperature;humidity
80124;BME280;69433;48.642;9.142;2023-05-07T00:01:46;96886.69;;;23.68;37.31
80124;BME280;69433;48.642;9.142;2023-05-07T00:04:13;96891.84;;;23.79;37.13
80124;BME280;69433;48.642;9.142;2023-05-07T00:06:39;96885.88;;;23.91;37.04
80124;BME280;69433;48.642;9.142;2023-05-07T00:09:05;96879.19;;;23.99;36.62
80124;BME280;69433;48.642;9.142;2023-05-07T00:11:30;96883.66;;;24.05;36.58
80124;BME280;69433;48.642;9.142;2023-05-07T00:13:55;96883.94;;;24.11;36.55
80124;BME280;69433;48.642;9.142;2023-05-07T00:16:21;96882.66;;;24.16;36.47
80124;BME280;69433;48.642;9.142;2023-05-07T00:18:46;96876.88;;;24.17;36.45
80124;BME280;69433;48.642;9.142;2023-05-07T00:21:12;96876.81;;;24.21;36.23
80124;BME280;69433;48.642;9.142;2023-05-07T00:23:37;96884.47;;;24.22;36.31
80124;BME280;69433;48.642;9.142;2023-05-07T00:26:03;96876.00;;;24.24;36.29
80124;BME280;69433;48.642;9.142;2023-05-07T00:28:28;96872.91;;;24.25;36.43
80124;BME280;69433;48.642;9.142;2023-05-07T00:30:54;96873.31;;;24.24;36.05
80124;BME280;69433;48.642;9.142;2023-05-07T00:33:19;96869.88;;;24.23;36.20
80124;BME280;69433;48.642;9.142;2023-05-07T00:35:46;96873.31;;;24.24;36.40
80124;BME280;69433;48.642;9.142;2023-05-07T00:38:11;96881.72;;;24.26;36.02
80124;BME280;69433;48.642;9.142;2023-05-07T00:40:37;96875.59;;;24.25;36.15
80124;BME280;69433;48.642;9.142;2023-05-07T00:43:02;96870.56;;;24.27;36.04
80124;BME280;69433;48.642;9.142;2023-05-07T00:45:28;96868.97;;;24.30;36.19
80124;BME280;69433;48.642;9.142;2023-05-07T00:47:58;96867.06;;;24.30;36.01
80124;BME280;69433;48.642;9.142;2023-05-07T00:50:24;96865.13;;;24.31;36.22
80124;BME280;69433;48.642;9.142;2023-05-07T00:52:50;96857.38;;;24.33;35.86
80124;BME280;69433;48.642;9.142;2023-05-07T00:55:15;96858.91;;;24.34;35.94
80124;BME280;69433;48.642;9.142;2023-05-07T00:57:41;96856.97;;;24.34;35.79
80124;BME280;69433;48.642;9.142;2023-05-07T01:00:08;96854.63;;;24.36;36.03
80124;BME280;69433;48.642;9.142;2023-05-07T01:02:35;96857.31;;;24.36;35.92
80124;BME280;69433;48.642;9.142;2023-05-07T01:05:01;96856.13;;;24.37;35.68
80124;BME280;69433;48.642;9.142;2023-05-07T01:07:29;96857.56;;;24.42;35.65
80124;BME280;69433;48.642;9.142;2023-05-07T01:09:54;96854.13;;;24.41;35.92
80124;BME280;69433;48.642;9.142;2023-05-07T01:12:20;96864.88;;;24.41;35.86
80124;BME280;69433;48.642;9.142;2023-05-07T01:14:45;96859.59;;;24.38;35.99
80124;BME280;69433;48.642;9.142;2023-05-07T01:17:11;96864.19;;;24.37;35.91
80124;BME280;69433;48.642;9.142;2023-05-07T01:19:36;96859.00;;;24.30;36.22
80124;BME280;69433;48.642;9.142;2023-05-07T01:22:04;96866.00;;;24.24;36.34
80124;BME280;69433;48.642;9.142;2023-05-07T01:24:32;96860.56;;;24.28;36.30
80124;BME280;69433;48.642;9.142;2023-05-07T01:26:58;96857.38;;;24.33;36.28
80124;BME280;69433;48.642;9.142;2023-05-07T01:29:23;96851.94;;;24.36;36.25
80124;BME280;69433;48.642;9.142;2023-05-07T01:31:50;96857.25;;;24.40;36.13
80124;BME280;69433;48.642;9.142;2023-05-07T01:34:17;96851.00;;;24.43;36.07
80124;BME280;69433;48.642;9.142;2023-05-07T01:36:44;96847.16;;;24.44;35.85
80124;BME280;69433;48.642;9.142;2023-05-07T01:39:10;96845.16;;;24.48;35.95
80124;BME280;69433;48.642;9.142;2023-05-07T01:41:35;96845.56;;;24.47;35.90
80124;BME280;69433;48.642;9.142;2023-05-07T01:44:01;96854.81;;;24.46;36.05
80124;BME280;69433;48.642;9.142;2023-05-07T01:46:28;96853.22;;;24.48;35.80
80124;BME280;69433;48.642;9.142;2023-05-07T01:48:55;96851.28;;;24.49;36.09
80124;BME280;69433;48.642;9.142;2023-05-07T01:51:21;96852.47;;;24.48;35.90
80124;BME280;69433;48.642;9.142;2023-05-07T01:53:47;96855.50;;;24.50;36.08
80124;BME280;69433;48.642;9.142;2023-05-07T01:56:16;96853.13;;;24.52;36.22
80124;BME280;69433;48.642;9.142;2023-05-07T01:58:42;96846.97;;;24.51;36.15
80124;BME280;69433;48.642;9.142;2023-05-07T02:01:07;96846.97;;;24.51;35.93
80124;BME280;69433;48.642;9.142;2023-05-07T02:03:33;96851.63;;;24.51;36.00
80124;BME280;69433;48.642;9.142;2023-05-07T02:05:58;96855.50;;;24.50;35.85
80124;BME280;69433;48.642;9.142;2023-05-07T02:08:23;96854.31;;;24.51;35.92
80124;BME280;69433;48.642;9.142;2023-05-07T02:10:48;96855.81;;;24.52;36.07
80124;BME280;69433;48.642;9.142;2023-05-07T02:13:15;96849.66;;;24.51;36.16
80124;BME280;69433;48.642;9.142;2023-05-07T02:15:40;96845.50;;;24.50;36.03
80124;BME280;69433;48.642;9.142;2023-05-07T02:18:08;96848.50;;;24.52;36.30
80124;BME280;69433;48.642;9.142;2023-05-07T02:20:34;96848.50;;;24.52;36.06
80124;BME280;69433;48.642;9.142;2023-05-07T02:22:59;96851.94;;;24.53;36.17
80124;BME280;69433;48.642;9.142;2023-05-07T02:25:25;96849.66;;;24.51;36.03
80124;BME280;69433;48.642;9.142;2023-05-07T02:27:50;96851.63;;;24.51;35.93
80124;BME280;69433;48.642;9.142;2023-05-07T02:30:16;96848.50;;;24.52;35.89
80124;BME280;69433;48.642;9.142;2023-05-07T02:32:41;96838.50;;;24.53;36.20
80124;BME280;69433;48.642;9.142;2023-05-07T02:35:06;96835.41;;;24.54;36.01
80124;BME280;69433;48.642;9.142;2023-05-07T02:37:32;96842.28;;;24.55;35.99
80124;BME280;69433;48.642;9.142;2023-05-07T02:39:57;96846.09;;;24.58;35.90
80124;BME280;69433;48.642;9.142;2023-05-07T02:42:23;96848.34;;;24.59;35.83
80124;BME280;69433;48.642;9.142;2023-05-07T02:44:48;96845.66;;;24.59;36.16
80124;BME280;69433;48.642;9.142;2023-05-07T02:47:15;96859.09;;;24.59;36.13
80124;BME280;69433;48.642;9.142;2023-05-07T02:49:40;96854.38;;;24.63;35.92
80124;BME280;69433;48.642;9.142;2023-05-07T02:52:06;96866.72;;;24.61;35.81
80124;BME280;69433;48.642;9.142;2023-05-07T02:54:31;96864.03;;;24.61;36.12
80124;BME280;69433;48.642;9.142;2023-05-07T02:56:56;96861.34;;;24.61;36.14
80124;BME280;69433;48.642;9.142;2023-05-07T02:59:23;96856.31;;;24.63;36.10
80124;BME280;69433;48.642;9.142;2023-05-07T03:01:48;96845.22;;;24.61;36.03
80124;BME280;69433;48.642;9.142;2023-05-07T03:04:14;96847.91;;;24.61;35.61
80124;BME280;69433;48.642;9.142;2023-05-07T03:06:39;96836.75;;;24.62;35.81
80124;BME280;69433;48.642;9.142;2023-05-07T03:09:04;96837.50;;;24.63;35.73
80124;BME280;69433;48.642;9.142;2023-05-07T03:11:30;96831.38;;;24.62;35.89
80124;BME280;69433;48.642;9.142;2023-05-07T03:13:55;96836.75;;;24.62;36.04
80124;BME280;69433;48.642;9.142;2023-05-07T03:16:20;96836.00;;;24.62;35.71
80124;BME280;69433;48.642;9.142;2023-05-07T03:18:45;96826.00;;;24.62;36.02
80124;BME280;69433;48.642;9.142;2023-05-07T03:21:11;96836.00;;;24.62;35.76
80124;BME280;69433;48.642;9.142;2023-05-07T03:23:36;96832.88;;;24.63;35.76
80124;BME280;69433;48.642;9.142;2023-05-07T03:26:01;96830.19;;;24.63;36.08
80124;BME280;69433;48.642;9.142;2023-05-07T03:28:27;96834.81;;;24.63;36.04
80124;BME280;69433;48.642;9.142;2023-05-07T03:30:52;96832.13;;;24.63;36.03
80124;BME280;69433;48.642;9.142;2023-05-07T03:33:17;96833.66;;;24.64;36.06
80124;BME280;69433;48.642;9.142;2023-05-07T03:35:43;96833.66;;;24.64;36.04
80124;BME280;69433;48.642;9.142;2023-05-07T03:38:08;96833.66;;;24.64;36.10
80124;BME280;69433;48.642;9.142;2023-05-07T03:40:33;96832.47;;;24.65;35.67
80124;BME280;69433;48.642;9.142;2023-05-07T03:42:59;96828.69;;;24.62;35.77
80124;BME280;69433;48.642;9.142;2023-05-07T03:45:25;96825.25;;;24.62;35.92
80124;BME280;69433;48.642;9.142;2023-05-07T03:47:50;96835.22;;;24.61;35.82
80124;BME280;69433;48.642;9.142;2023-05-07T03:50:16;96827.63;;;24.60;35.99
80124;BME280;69433;48.642;9.142;2023-05-07T03:52:41;96832.66;;;24.58;35.70
80124;BME280;69433;48.642;9.142;2023-05-07T03:55:07;96828.44;;;24.57;35.72
80124;BME280;69433;48.642;9.142;2023-05-07T03:57:32;96833.81;;;24.57;35.78
80124;BME280;69433;48.642;9.142;2023-05-07T03:59:57;96833.06;;;24.56;35.89
80124;BME280;69433;48.642;9.142;2023-05-07T04:02:23;96837.25;;;24.57;36.25
80124;BME280;69433;48.642;9.142;2023-05-07T04:04:48;96836.84;;;24.59;36.02
80124;BME280;69433;48.642;9.142;2023-05-07T04:07:14;96841.88;;;24.57;36.14
80124;BME280;69433;48.642;9.142;2023-05-07T04:09:40;96840.72;;;24.58;35.65
80124;BME280;69433;48.642;9.142;2023-05-07T04:12:05;96841.06;;;24.60;36.05
80124;BME280;69433;48.642;9.142;2023-05-07T04:14:31;96847.91;;;24.61;35.92
80124;BME280;69433;48.642;9.142;2023-05-07T04:16:58;96850.19;;;24.62;36.02
80124;BME280;69433;48.642;9.142;2023-05-07T04:19:23;96848.25;;;24.63;35.73
80124;BME280;69433;48.642;9.142;2023-05-07T04:21:51;96848.25;;;24.63;35.59
80124;BME280;69433;48.642;9.142;2023-05-07T04:24:16;96843.63;;;24.63;36.01
80124;BME280;69433;48.642;9.142;2023-05-07T04:26:41;96851.28;;;24.65;35.83
80124;BME280;69433;48.642;9.142;2023-05-07T04:29:07;96849.78;;;24.64;35.99
80124;BME280;69433;48.642;9.142;2023-05-07T04:31:32;96849.78;;;24.64;35.67
80124;BME280;69433;48.642;9.142;2023-05-07T04:33:57;96851.28;;;24.65;35.83
80124;BME280;69433;48.642;9.142;2023-05-07T04:36:23;96855.91;;;24.64;35.86
80124;BME280;69433;48.642;9.142;2023-05-07T04:38:52;96851.28;;;24.65;35.66
80124;BME280;69433;48.642;9.142;2023-05-07T04:41:18;96844.41;;;24.64;35.76
80124;BME280;69433;48.642;9.142;2023-05-07T04:43:43;96852.81;;;24.66;35.59
80124;BME280;69433;48.642;9.142;2023-05-07T04:46:08;96850.13;;;24.66;35.61
80124;BME280;69433;48.642;9.142;2023-05-07T04:48:33;96850.53;;;24.64;35.67
80124;BME280;69433;48.642;9.142;2023-05-07T04:50:59;96850.19;;;24.62;36.05
80124;BME280;69433;48.642;9.142;2023-05-07T04:53:24;96854.03;;;24.61;35.62
80124;BME280;69433;48.642;9.142;2023-05-07T04:55:55;96854.50;;;24.60;35.91
80124;BME280;69433;48.642;9.142;2023-05-07T04:58:21;96871.38;;;24.60;36.11
80124;BME280;69433;48.642;9.142;2023-05-07T05:00:47;96870.63;;;24.60;35.84
80124;BME280;69433;48.642;9.142;2023-05-07T05:03:12;96876.00;;;24.60;36.06
80124;BME280;69433;48.642;9.142;2023-05-07T05:05:37;96870.63;;;24.60;36.16
80124;BME280;69433;48.642;9.142;2023-05-07T05:08:03;96877.47;;;24.61;36.17
80124;BME280;69433;48.642;9.142;2023-05-07T05:10:28;96883.63;;;24.61;36.10
80124;BME280;69433;48.642;9.142;2023-05-07T05:12:53;96880.50;;;24.63;35.80
80124;BME280;69433;48.642;9.142;2023-05-07T05:15:19;96885.47;;;24.64;36.06
80124;BME280;69433;48.642;9.142;2023-05-07T05:17:44;96885.06;;;24.66;36.06
80124;BME280;69433;48.642;9.142;2023-05-07T05:20:10;96892.72;;;24.67;35.89
80124;BME280;69433;48.642;9.142;2023-05-07T05:22:39;96889.59;;;24.69;36.15
80124;BME280;69433;48.642;9.142;2023-05-07T05:25:04;96895.28;;;24.71;35.83
80124;BME280;69433;48.642;9.142;2023-05-07T05:27:30;96896.41;;;24.73;35.72
80124;BME280;69433;48.642;9.142;2023-05-07T05:29:55;96903.28;;;24.74;36.02
80124;BME280;69433;48.642;9.142;2023-05-07T05:32:20;96908.25;;;24.76;35.73
80124;BME280;69433;48.642;9.142;2023-05-07T05:34:46;96907.44;;;24.79;35.58
80124;BME280;69433;48.642;9.142;2023-05-07T05:37:11;96898.59;;;24.78;36.01
80124;BME280;69433;48.642;9.142;2023-05-07T05:39:36;96906.56;;;24.82;35.72
80124;BME280;69433;48.642;9.142;2023-05-07T05:42:02;96905.75;;;24.85;35.97
80124;BME280;69433;48.642;9.142;2023-05-07T05:44:27;96893.81;;;24.86;35.72
80124;BME280;69433;48.642;9.142;2023-05-07T05:46:52;96898.34;;;24.89;35.78
80124;BME280;69433;48.642;9.142;2023-05-07T05:49:20;96899.09;;;24.90;35.80
80124;BME280;69433;48.642;9.142;2023-05-07T05:51:45;96899.47;;;24.92;35.93
80124;BME280;69433;48.642;9.142;2023-05-07T05:54:11;96900.97;;;24.93;35.70
80124;BME280;69433;48.642;9.142;2023-05-07T05:56:36;96904.41;;;24.93;36.14
80124;BME280;69433;48.642;9.142;2023-05-07T05:59:03;96908.56;;;24.98;36.12
80124;BME280;69433;48.642;9.142;2023-05-07T06:01:28;96908.09;;;24.99;36.00
80124;BME280;69433;48.642;9.142;2023-05-07T06:03:55;96913.06;;;25.01;36.06
80124;BME280;69433;48.642;9.142;2023-05-07T06:06:21;96912.66;;;25.02;35.84
80124;BME280;69433;48.642;9.142;2023-05-07T06:08:46;96913.34;;;25.06;35.74
80124;BME280;69433;48.642;9.142;2023-05-07T06:11:12;96903.34;;;25.07;35.96
80124;BME280;69433;48.642;9.142;2023-05-07T06:13:37;96904.00;;;25.11;35.63
80124;BME280;69433;48.642;9.142;2023-05-07T06:16:02;96907.03;;;25.13;35.98
80124;BME280;69433;48.642;9.142;2023-05-07T06:18:28;96905.09;;;25.13;35.73
80124;BME280;69433;48.642;9.142;2023-05-07T06:20:53;96904.25;;;25.17;35.73
80124;BME280;69433;48.642;9.142;2023-05-07T06:23:18;96899.94;;;25.19;36.19
80124;BME280;69433;48.642;9.142;2023-05-07T06:25:50;96899.94;;;25.19;35.70
80124;BME280;69433;48.642;9.142;2023-05-07T06:28:16;96901.44;;;25.20;35.77
80124;BME280;69433;48.642;9.142;2023-05-07T06:30:41;96902.56;;;25.23;35.92
80124;BME280;69433;48.642;9.142;2023-05-07T06:33:06;96911.72;;;25.25;35.65
80124;BME280;69433;48.642;9.142;2023-05-07T06:35:32;96915.94;;;25.26;36.01
80124;BME280;69433;48.642;9.142;2023-05-07T06:37:57;96913.66;;;25.25;35.66
80124;BME280;69433;48.642;9.142;2023-05-07T06:40:22;96922.81;;;25.27;35.67
80124;BME280;69433;48.642;9.142;2023-05-07T06:42:48;96915.50;;;25.28;36.00
80124;BME280;69433;48.642;9.142;2023-05-07T06:45:13;96915.75;;;25.33;36.15
80124;BME280;69433;48.642;9.142;2023-05-07T06:47:40;96911.88;;;25.34;36.16
80124;BME280;69433;48.642;9.142;2023-05-07T06:50:06;96909.94;;;25.35;36.11
80124;BME280;69433;48.642;9.142;2023-05-07T06:52:31;96910.34;;;25.33;36.22
80124;BME280;69433;48.642;9.142;2023-05-07T06:54:56;96909.59;;;25.33;36.16
80124;BME280;69433;48.642;9.142;2023-05-07T06:57:22;96911.88;;;25.34;36.21
80124;BME280;69433;48.642;9.142;2023-05-07T06:59:47;96909.59;;;25.33;36.21
80124;BME280;69433;48.642;9.142;2023-05-07T07:02:12;96908.44;;;25.34;35.84
80124;BME280;69433;48.642;9.142;2023-05-07T07:04:38;96913.06;;;25.33;36.30
80124;BME280;69433;48.642;9.142;2023-05-07T07:07:03;96915.31;;;25.35;36.39
80124;BME280;69433;48.642;9.142;2023-05-07T07:09:28;96913.41;;;25.35;36.39
80124;BME280;69433;48.642;9.142;2023-05-07T07:11:53;96918.66;;;25.39;36.29
80124;BME280;69433;48.642;9.142;2023-05-07T07:14:19;96901.75;;;25.38;36.24
80124;BME280;69433;48.642;9.142;2023-05-07T07:16:45;96907.81;;;25.42;36.38
80124;BME280;69433;48.642;9.142;2023-05-07T07:19:12;96903.19;;;25.43;36.08
80124;BME280;69433;48.642;9.142;2023-05-07T07:21:37;96908.91;;;25.45;36.27
80124;BME280;69433;48.642;9.142;2023-05-07T07:24:02;96903.13;;;25.46;36.23
80124;BME280;69433;48.642;9.142;2023-05-07T07:26:28;96913.78;;;25.50;36.39
80124;BME280;69433;48.642;9.142;2023-05-07T07:28:53;96913.78;;;25.50;36.46
80124;BME280;69433;48.642;9.142;2023-05-07T07:31:18;96919.16;;;25.50;35.97
80124;BME280;69433;48.642;9.142;2023-05-07T07:33:44;96916.81;;;25.52;36.34
80124;BME280;69433;48.642;9.142;2023-05-07T07:36:09;96911.41;;;25.52;36.11
80124;BME280;69433;48.642;9.142;2023-05-07T07:38:35;96914.44;;;25.54;36.36
80124;BME280;69433;48.642;9.142;2023-05-07T07:41:00;96914.78;;;25.56;36.24
80124;BME280;69433;48.642;9.142;2023-05-07T07:43:26;96905.84;;;25.59;36.37
80124;BME280;69433;48.642;9.142;2023-05-07T07:45:52;96908.91;;;25.61;36.42
80124;BME280;69433;48.642;9.142;2023-05-07T07:48:17;96916.13;;;25.64;36.41
80124;BME280;69433;48.642;9.142;2023-05-07T07:50:42;96908.81;;;25.65;35.97
80124;BME280;69433;48.642;9.142;2023-05-07T07:53:07;96916.88;;;25.65;36.29
80124;BME280;69433;48.642;9.142;2023-05-07T07:55:38;96921.41;;;25.68;36.46
80124;BME280;69433;48.642;9.142;2023-05-07T07:58:03;96916.78;;;25.68;36.14
80124;BME280;69433;48.642;9.142;2023-05-07T08:00:28;96920.22;;;25.69;36.19
80124;BME280;69433;48.642;9.142;2023-05-07T08:02:54;96920.56;;;25.71;36.45
80124;BME280;69433;48.642;9.142;2023-05-07T08:05:19;96918.22;;;25.73;36.37
80124;BME280;69433;48.642;9.142;2023-05-07T08:07:45;96916.28;;;25.73;36.14
80124;BME280;69433;48.642;9.142;2023-05-07T08:10:11;96918.56;;;25.75;36.31
80124;BME280;69433;48.642;9.142;2023-05-07T08:12:36;96916.63;;;25.75;36.13
80124;BME280;69433;48.642;9.142;2023-05-07T08:15:02;96927.69;;;25.77;36.37
80124;BME280;69433;48.642;9.142;2023-05-07T08:17:27;96924.56;;;25.79;35.91
80124;BME280;69433;48.642;9.142;2023-05-07T08:19:52;96921.47;;;25.80;35.88
80124;BME280;69433;48.642;9.142;2023-05-07T08:22:18;96920.63;;;25.83;35.83
80124;BME280;69433;48.642;9.142;2023-05-07T08:24:43;96918.25;;;25.85;36.19
80124;BME280;69433;48.642;9.142;2023-05-07T08:27:09;96919.00;;;25.86;35.77
80124;BME280;69433;48.642;9.142;2023-05-07T08:29:36;96912.88;;;25.85;36.05
80124;BME280;69433;48.642;9.142;2023-05-07T08:32:01;96925.06;;;25.90;35.93
80124;BME280;69433;48.642;9.142;2023-05-07T08:34:26;96918.16;;;25.89;35.83
80124;BME280;69433;48.642;9.142;2023-05-07T08:36:52;96921.59;;;25.90;35.97
80124;BME280;69433;48.642;9.142;2023-05-07T08:39:17;96917.31;;;25.92;36.12
80124;BME280;69433;48.642;9.142;2023-05-07T08:41:44;96910.31;;;25.95;36.07
80124;BME280;69433;48.642;9.142;2023-05-07T08:44:14;96913.31;;;25.97;35.84
80124;BME280;69433;48.642;9.142;2023-05-07T08:46:41;96913.66;;;25.99;35.78
80124;BME280;69433;48.642;9.142;2023-05-07T08:49:07;96924.34;;;26.02;35.76
80124;BME280;69433;48.642;9.142;2023-05-07T08:51:32;96920.56;;;26.00;36.11
80124;BME280;69433;48.642;9.142;2023-05-07T08:53:59;96921.66;;;26.02;36.06
80124;BME280;69433;48.642;9.142;2023-05-07T08:56:24;96916.25;;;26.02;36.23
80124;BME280;69433;48.642;9.142;2023-05-07T08:58:50;96915.38;;;26.05;36.05
80124;BME280;69433;48.642;9.142;2023-05-07T09:01:16;96923.03;;;26.07;35.77
80124;BME280;69433;48.642;9.142;2023-05-07T09:03:44;96921.44;;;26.09;35.75
80124;BME280;69433;48.642;9.142;2023-05-07T09:06:10;96918.31;;;26.11;36.15
80124;BME280;69433;48.642;9.142;2023-05-07T09:08:35;96916.72;;;26.13;35.78
80124;BME280;69433;48.642;9.142;2023-05-07T09:11:01;96913.56;;;26.15;35.99
80124;BME280;69433;48.642;9.142;2023-05-07T09:13:27;96914.78;;;26.14;35.85
80124;BME280;69433;48.642;9.142;2023-05-07T09:15:52;96910.13;;;26.14;35.84
80124;BME280;69433;48.642;9.142;2023-05-07T09:18:18;96915.09;;;26.16;36.18
80124;BME280;69433;48.642;9.142;2023-05-07T09:20:43;96915.09;;;26.16;35.78
80124;BME280;69433;48.642;9.142;2023-05-07T09:23:08;96907.34;;;26.18;35.78
80124;BME280;69433;48.642;9.142;2023-05-07T09:25:35;96907.34;;;26.18;36.08
80124;BME280;69433;48.642;9.142;2023-05-07T09:28:01;96902.69;;;26.18;36.08
80124;BME280;69433;48.642;9.142;2023-05-07T09:30:28;96901.94;;;26.18;36.05
80124;BME280;69433;48.642;9.142;2023-05-07T09:32:54;96898.06;;;26.19;36.16
80124;BME280;69433;48.642;9.142;2023-05-07T09:35:20;96900.34;;;26.20;35.82
80124;BME280;69433;48.642;9.142;2023-05-07T09:37:46;96904.53;;;26.21;35.88
80124;BME280;69433;48.642;9.142;2023-05-07T09:40:25;96901.09;;;26.21;36.05
80124;BME280;69433;48.642;9.142;2023-05-07T09:42:51;96897.97;;;26.22;35.96
80124;BME280;69433;48.642;9.142;2023-05-07T09:45:28;96900.97;;;26.24;36.08
80124;BME280;69433;48.642;9.142;2023-05-07T09:47:55;96884.81;;;26.24;36.03
80124;BME280;69433;48.642;9.142;2023-05-07T09:50:27;96893.25;;;26.27;35.93
80124;BME280;69433;48.642;9.142;2023-05-07T09:52:54;96894.00;;;26.27;35.93
80124;BME280;69433;48.642;9.142;2023-05-07T09:55:20;96890.13;;;26.28;36.08
80124;BME280;69433;48.642;9.142;2023-05-07T09:57:48;96893.16;;;26.30;35.94
80124;BME280;69433;48.642;9.142;2023-05-07T10:00:15;96903.19;;;26.30;35.88
80124;BME280;69433;48.642;9.142;2023-05-07T10:02:43;96895.41;;;26.32;36.12
80124;BME280;69433;48.642;9.142;2023-05-07T10:05:14;96889.28;;;26.31;35.88
80124;BME280;69433;48.642;9.142;2023-05-07T10:07:41;96883.00;;;26.34;35.91
80124;BME280;69433;48.642;9.142;2023-05-07T10:10:07;96884.22;;;26.33;35.75
80124;BME280;69433;48.642;9.142;2023-05-07T10:12:33;96878.69;;;26.37;35.87
80124;BME280;69433;48.642;9.142;2023-05-07T10:15:05;96881.31;;;26.40;35.90
80124;BME280;69433;48.642;9.142;2023-05-07T10:17:31;96877.09;;;26.39;35.63
80124;BME280;69433;48.642;9.142;2023-05-07T10:19:57;96874.41;;;26.39;35.77
80124;BME280;69433;48.642;9.142;2023-05-07T10:22:23;96868.59;;;26.41;35.75
80124;BME280;69433;48.642;9.142;2023-05-07T10:24:52;96870.53;;;26.40;35.79
80124;BME280;69433;48.642;9.142;2023-05-07T10:27:21;96867.41;;;26.42;35.69
80124;BME280;69433;48.642;9.142;2023-05-07T10:29:53;96865.13;;;26.40;35.92
80124;BME280;69433;48.642;9.142;2023-05-07T10:32:32;96859.75;;;26.40;35.94
80124;BME280;69433;48.642;9.142;2023-05-07T10:35:00;96859.75;;;26.40;35.96
80124;BME280;69433;48.642;9.142;2023-05-07T10:37:27;96856.63;;;26.42;35.95
80124;BME280;69433;48.642;9.142;2023-05-07T10:39:54;96856.50;;;26.45;35.99
80124;BME280;69433;48.642;9.142;2023-05-07T10:42:19;96859.94;;;26.46;35.80
80124;BME280;69433;48.642;9.142;2023-05-07T10:44:44;96858.34;;;26.48;35.95
80124;BME280;69433;48.642;9.142;2023-05-07T10:47:11;96858.66;;;26.50;35.63
80124;BME280;69433;48.642;9.142;2023-05-07T10:54:40;96857.47;;;26.51;35.94
80124;BME280;69433;48.642;9.142;2023-05-07T10:59:56;96853.59;;;26.52;35.78
80124;BME280;69433;48.642;9.142;2023-05-07T11:02:22;96849.69;;;26.53;35.66
80124;BME280;69433;48.642;9.142;2023-05-07T11:05:19;96847.75;;;26.54;35.87
80124;BME280;69433;48.642;9.142;2023-05-07T11:07:58;96843.13;;;26.54;35.55
80124;BME280;69433;48.642;9.142;2023-05-07T11:10:47;96841.94;;;26.55;35.54
80124;BME280;69433;48.642;9.142;2023-05-07T11:13:13;96846.13;;;26.56;35.71
80124;BME280;69433;48.642;9.142;2023-05-07T11:15:40;96844.63;;;26.55;35.67
80124;BME280;69433;48.642;9.142;2023-05-07T11:18:08;96838.38;;;26.58;35.64
80124;BME280;69433;48.642;9.142;2023-05-07T11:20:47;96836.88;;;26.57;35.60
80124;BME280;69433;48.642;9.142;2023-05-07T11:26:09;96836.75;;;26.61;35.85
80124;BME280;69433;48.642;9.142;2023-05-07T11:28:40;96837.38;;;26.65;35.49
80124;BME280;69433;48.642;9.142;2023-05-07T11:31:06;96825.41;;;26.66;35.61
80124;BME280;69433;48.642;9.142;2023-05-07T11:33:33;96831.25;;;26.65;35.66
80124;BME280;69433;48.642;9.142;2023-05-07T11:35:59;96827.03;;;26.64;35.52
80124;BME280;69433;48.642;9.142;2023-05-07T11:38:25;96826.59;;;26.65;35.63
80124;BME280;69433;48.642;9.142;2023-05-07T11:40:58;96819.69;;;26.64;35.78
80124;BME280;69433;48.642;9.142;2023-05-07T11:43:26;96816.69;;;26.62;35.62
80124;BME280;69433;48.642;9.142;2023-05-07T11:45:51;96814.88;;;26.59;35.84
80124;BME280;69433;48.642;9.142;2023-05-07T11:48:16;96817.78;;;26.52;35.94
80124;BME280;69433;48.642;9.142;2023-05-07T11:50:53;96815.53;;;26.50;36.03
80124;BME280;69433;48.642;9.142;2023-05-07T11:53:25;96815.19;;;26.48;35.98
80124;BME280;69433;48.642;9.142;2023-05-07T11:55:56;96819.06;;;26.47;36.08
80124;BME280;69433;48.642;9.142;2023-05-07T11:58:24;96824.13;;;26.45;36.05
80124;BME280;69433;48.642;9.142;2023-05-07T12:00:51;96826.50;;;26.43;36.11
80124;BME280;69433;48.642;9.142;2023-05-07T12:03:16;96831.28;;;26.39;36.28
80124;BME280;69433;48.642;9.142;2023-05-07T12:05:44;96822.09;;;26.37;36.25
80124;BME280;69433;48.642;9.142;2023-05-07T12:08:22;96821.34;;;26.36;36.15
80124;BME280;69433;48.642;9.142;2023-05-07T12:10:50;96818.03;;;26.32;36.16
80124;BME280;69433;48.642;9.142;2023-05-07T12:13:24;96825.44;;;26.28;36.50
80124;BME280;69433;48.642;9.142;2023-05-07T12:15:53;96828.97;;;26.25;36.55
80124;BME280;69433;48.642;9.142;2023-05-07T12:18:20;96840.63;;;26.22;36.77
80124;BME280;69433;48.642;9.142;2023-05-07T12:20:47;96852.59;;;26.21;36.70
80124;BME280;69433;48.642;9.142;2023-05-07T12:23:13;96861.84;;;26.20;36.70
80124;BME280;69433;48.642;9.142;2023-05-07T12:25:39;96891.16;;;26.18;36.71
80124;BME280;69433;48.642;9.142;2023-05-07T12:28:07;96892.78;;;26.15;37.02
80124;BME280;69433;48.642;9.142;2023-05-07T12:30:39;96898.63;;;26.14;37.08
80124;BME280;69433;48.642;9.142;2023-05-07T12:33:05;96914.44;;;26.12;36.96
80124;BME280;69433;48.642;9.142;2023-05-07T12:35:31;96941.38;;;26.12;37.07
80124;BME280;69433;48.642;9.142;2023-05-07T12:38:00;96949.13;;;26.10;36.83
80124;BME280;69433;48.642;9.142;2023-05-07T12:40:41;96936.09;;;26.08;37.20
80124;BME280;69433;48.642;9.142;2023-05-07T12:43:07;96925.72;;;26.07;36.95
80124;BME280;69433;48.642;9.142;2023-05-07T12:45:40;96932.31;;;26.06;36.97
80124;BME280;69433;48.642;9.142;2023-05-07T12:48:06;96934.25;;;26.05;37.11
80124;BME280;69433;48.642;9.142;2023-05-07T12:50:32;96937.81;;;26.02;37.14
80124;BME280;69433;48.642;9.142;2023-05-07T12:53:03;96945.47;;;26.04;37.15
80124;BME280;69433;48.642;9.142;2023-05-07T12:55:30;96945.56;;;26.00;37.27
80124;BME280;69433;48.642;9.142;2023-05-07T12:57:56;96947.50;;;26.00;36.93
80124;BME280;69433;48.642;9.142;2023-05-07T13:00:36;96953.31;;;25.98;37.29
80124;BME280;69433;48.642;9.142;2023-05-07T13:03:03;96962.56;;;25.97;37.05
80124;BME280;69433;48.642;9.142;2023-05-07T13:05:28;96951.03;;;25.97;36.92
80124;BME280;69433;48.642;9.142;2023-05-07T13:07:57;96954.91;;;25.96;37.09